Airfield :
LOGIN :

Register | Disclaimer

   EN    FR    IT 

 










Legend :    VFR   Marginal VFR   IFR   Intensive IFR   Very Intensive IFR
Visi :
Ceiling :
>= 8 km
>= 3000ft
5 to 8 km
1000 to 3000 ft
1500m to 5 km
500 to 1000 ft
800 to 1500m
200 to 500 ft
< 800m
< 200 ft
Symbols :   Thunderstorms  Fog  Heavy snow  Heavy precipitations  Wind > 20 kt
SIGMETs :     Misc.  Thunderstorms  Icing  Turbulence  Mountain Waves  Volcanic Ashes






- Airport Elevation : 348 ft
- IATA code : TSR


LRTR - Timisoara

CURRENT METAR :
  • 281700Z 14006KT CAVOK 07/06 Q1006 R11/290095

EXPIRED METARs :
  • 281630Z 13007KT CAVOK 07/06 Q1007 R11/290095
  • 281600Z 14007KT 9999 -RA NSC 07/06 Q1007 R11/290095
  • 281530Z 13008KT 8000 NSC 07/06 Q1007 R11/290095
  • 281500Z 14006KT 8000 NSC 07/06 Q1008 R11/290095
  • 281430Z 14006KT 8000 NSC 07/06 Q1008 R11/290095

TAF TAF LRTR
Valid from the 28 at 12:00 until the 29 at 12:00 UTC


281100Z 2812/2912 17010KT 5000 BR BKN010 BKN040
TEMPO 2812/2815 3000 -RA BR BKN005 BKN035
BECMG 2818/2820 5000 -RA BR BKN015 BKN030
PROB40
TEMPO 2821/2902 31015G25KT 3000 SHRA BKN010 BKN030CB
BECMG 2902/2904 VRB04KT 3000 BR BKN010
BECMG 2907/2909 7000 NSW SCT020



MET'MAP, your aeronautical weather chart ! - Copyright ORBIFLY December 2007 - Disclaimer

ORBIFLY MET'MAP TEAM :

Programming & Development : Alexandra Zaïnal
Concept & original design : Baudouin d'Aumeries
Assistance for programming : Marc-Olivier Méhu
Technical & hardware support : Manuel Goepfert

Contact : metmap@orbifly.com




SOURCES & CREDITS :

   NOAA